Elkins Park, Pennsylvania
Current Conditions -  °F | °C
As of 12:50 PM on Monday 22 Dec 2014 (Local Time) from KPNE Reporting Station
Overcast Overcast  
Wind Chill:   Ceiling: 1900
Heat Index:   Visibility: 10mi
Dew Point:   Wind: 9mph
Humidity: 66%   Direction: 70°ENE
Pressure: 30.24"   Gusts: NA
Location:  40.08°N, 75.13°W
Report Text: KPNE 221750Z AUTO 07008KT 10SM BKN019 OVC100 07/01 A3024 RMK AO2 TSNO
Loading
Personal Weather Stations






























Interactive Weather Map New forecast layout! Learn more

10-Day Weather Forecast

Advertisements
Track Severe Weather on mobile